createdAt,value
2023-02-24T00:02:20.206Z,9.40
2023-02-24T00:04:51.851Z,9.50
2023-02-24T00:07:19.234Z,9.50
2023-02-24T00:09:46.692Z,9.50
2023-02-24T00:12:15.874Z,9.40
2023-02-24T00:14:45.290Z,9.30
2023-02-24T00:17:16.454Z,9.30
2023-02-24T00:19:43.909Z,9.40
2023-02-24T00:22:11.372Z,9.40
2023-02-24T00:24:38.438Z,9.40
2023-02-24T00:27:12.387Z,9.50
2023-02-24T00:29:41.839Z,9.40
2023-02-24T00:32:13.164Z,9.40
2023-02-24T00:34:43.849Z,9.50
2023-02-24T00:37:13.912Z,9.50
2023-02-24T00:39:44.379Z,9.50
2023-02-24T00:42:12.149Z,9.40
2023-02-24T00:44:46.281Z,9.30
2023-02-24T00:47:16.916Z,9.20
2023-02-24T00:49:44.228Z,9.20
2023-02-24T00:52:17.947Z,9.10
2023-02-24T00:54:47.022Z,9.00
2023-02-24T00:57:14.697Z,8.90
2023-02-24T00:59:47.706Z,8.80
2023-02-24T01:02:15.834Z,8.80
2023-02-24T01:04:45.096Z,8.80
2023-02-24T01:07:14.088Z,8.70
2023-02-24T01:09:41.984Z,8.70
2023-02-24T01:12:29.849Z,8.80
2023-02-24T01:14:56.952Z,8.80
2023-02-24T01:17:32.906Z,8.80
2023-02-24T01:20:00.912Z,8.60
2023-02-24T01:22:30.396Z,8.50
2023-02-24T01:25:00.825Z,8.40
2023-02-24T01:27:31.610Z,8.40
2023-02-24T01:30:01.356Z,8.30
2023-02-24T01:32:32.109Z,8.30
2023-02-24T01:34:59.509Z,8.30
2023-02-24T01:37:28.456Z,8.40
2023-02-24T01:39:55.872Z,8.40
2023-02-24T01:42:23.463Z,8.40
2023-02-24T01:44:52.415Z,8.40
2023-02-24T01:47:31.350Z,8.30
2023-02-24T01:49:58.531Z,8.40
2023-02-24T01:52:30.559Z,8.40
2023-02-24T01:55:16.742Z,8.40
2023-02-24T01:57:46.331Z,8.50
2023-02-24T02:00:37.620Z,8.50
2023-02-24T02:03:13.929Z,8.40
2023-02-24T02:05:42.150Z,8.40
2023-02-24T02:08:10.474Z,8.40
2023-02-24T02:10:39.819Z,8.40
2023-02-24T02:13:06.819Z,8.40
2023-02-24T02:15:44.250Z,8.50
2023-02-24T02:18:45.645Z,8.50
2023-02-24T02:21:40.207Z,8.40
2023-02-24T02:24:20.303Z,8.50
2023-02-24T02:26:58.318Z,8.50
2023-02-24T02:29:58.892Z,8.50
2023-02-24T02:33:01.979Z,8.40
2023-02-24T02:35:52.134Z,8.30
2023-02-24T02:38:26.283Z,8.20
2023-02-24T02:41:36.460Z,8.20
2023-02-24T02:44:16.426Z,8.20
2023-02-24T02:47:22.309Z,8.10
2023-02-24T02:49:55.220Z,8.10
2023-02-24T02:52:47.209Z,8.10
2023-02-24T02:55:36.384Z,8.00
2023-02-24T02:58:09.272Z,8.00
2023-02-24T03:00:50.307Z,7.90
2023-02-24T03:03:19.559Z,7.90
2023-02-24T03:06:01.267Z,7.90
2023-02-24T03:08:34.384Z,7.80
2023-02-24T03:11:03.416Z,7.80
2023-02-24T03:13:41.561Z,7.70
2023-02-24T03:16:12.464Z,7.70
2023-02-24T03:18:51.891Z,7.70
2023-02-24T03:21:39.895Z,7.70
2023-02-24T03:24:07.787Z,7.70
2023-02-24T03:26:52.330Z,7.70
2023-02-24T03:29:32.085Z,7.70
2023-02-24T03:32:24.876Z,7.70
2023-02-24T03:35:11.155Z,7.70
2023-02-24T03:37:41.166Z,7.70
2023-02-24T03:40:12.028Z,7.60
2023-02-24T03:42:43.559Z,7.60
2023-02-24T03:45:11.258Z,7.60
2023-02-24T03:47:40.711Z,7.60
2023-02-24T03:50:17.426Z,7.60
2023-02-24T03:52:59.786Z,7.70
2023-02-24T03:55:31.008Z,7.70
2023-02-24T03:58:39.375Z,7.90
2023-02-24T04:01:36.646Z,7.90
2023-02-24T04:04:33.265Z,8.00
2023-02-24T04:07:26.472Z,8.20
2023-02-24T04:10:09.511Z,8.20
2023-02-24T04:12:55.463Z,8.20
2023-02-24T04:15:31.360Z,8.20
2023-02-24T04:18:11.503Z,8.20
2023-02-24T04:20:41.160Z,8.10
2023-02-24T04:23:16.866Z,8.00
2023-02-24T04:25:49.235Z,8.00
2023-02-24T04:28:22.366Z,8.10
2023-02-24T04:30:55.769Z,8.10
2023-02-24T04:33:23.291Z,8.10
2023-02-24T04:35:51.359Z,8.10
2023-02-24T04:38:20.138Z,8.10
2023-02-24T04:40:51.270Z,8.00
2023-02-24T04:43:21.421Z,8.00
2023-02-24T04:45:48.402Z,8.00
2023-02-24T04:48:15.436Z,8.00
2023-02-24T04:50:48.409Z,8.00
2023-02-24T04:53:17.055Z,7.90
2023-02-24T04:55:49.649Z,7.90
2023-02-24T04:58:21.913Z,7.90
2023-02-24T05:00:52.806Z,8.00
2023-02-24T05:03:22.848Z,8.00
2023-02-24T05:05:58.256Z,8.00
2023-02-24T05:08:27.371Z,7.90
2023-02-24T05:10:56.850Z,7.90
2023-02-24T05:13:28.103Z,7.80
2023-02-24T05:15:59.980Z,7.80
2023-02-24T05:18:29.694Z,7.80
2023-02-24T05:21:16.180Z,7.70
2023-02-24T05:23:46.950Z,7.70
2023-02-24T05:26:17.918Z,7.60
2023-02-24T05:28:49.355Z,7.60
2023-02-24T05:31:24.212Z,7.50
2023-02-24T05:34:13.589Z,7.60
2023-02-24T05:36:41.174Z,7.60
2023-02-24T05:39:12.137Z,7.60
2023-02-24T05:41:42.210Z,7.60
2023-02-24T05:44:12.835Z,7.60
2023-02-24T05:46:46.787Z,7.60
2023-02-24T05:49:25.778Z,7.50
2023-02-24T05:51:55.517Z,7.50
2023-02-24T05:54:37.080Z,7.40
2023-02-24T05:57:09.022Z,7.40
2023-02-24T05:59:36.139Z,7.40
2023-02-24T06:02:07.614Z,7.40
2023-02-24T06:04:51.119Z,7.50
2023-02-24T06:07:25.172Z,7.50
2023-02-24T06:09:58.947Z,7.60
2023-02-24T06:12:34.481Z,7.60
2023-02-24T06:15:07.724Z,7.70
2023-02-24T06:17:35.142Z,7.70
2023-02-24T06:20:04.071Z,7.80
2023-02-24T06:22:34.608Z,7.80
2023-02-24T06:25:01.725Z,7.90
2023-02-24T06:27:28.992Z,8.00
2023-02-24T06:29:56.897Z,8.10
2023-02-24T06:32:26.248Z,8.20
2023-02-24T06:34:54.286Z,8.30
2023-02-24T06:37:23.564Z,8.40
2023-02-24T06:39:51.232Z,8.40
2023-02-24T06:42:18.731Z,8.40
2023-02-24T06:44:46.651Z,8.50
2023-02-24T06:47:16.340Z,8.50
2023-02-24T06:49:44.756Z,8.50
2023-02-24T06:52:20.600Z,8.60
2023-02-24T06:54:49.126Z,8.50
2023-02-24T06:57:16.151Z,8.50
2023-02-24T06:59:43.196Z,8.50
2023-02-24T07:02:14.160Z,8.50
2023-02-24T07:04:44.133Z,8.50
2023-02-24T07:07:14.238Z,8.50
2023-02-24T07:09:45.567Z,8.60
2023-02-24T07:12:12.932Z,8.60
2023-02-24T07:14:40.827Z,8.60
2023-02-24T07:17:12.518Z,8.60
2023-02-24T07:19:40.162Z,8.60
2023-02-24T07:22:10.582Z,8.60
2023-02-24T07:24:39.414Z,8.60
2023-02-24T07:27:19.514Z,8.60
2023-02-24T07:32:46.908Z,8.70
2023-02-24T07:35:15.744Z,8.70
2023-02-24T07:37:43.349Z,8.60
2023-02-24T07:41:03.250Z,8.70
2023-02-24T07:43:37.285Z,8.60
2023-02-24T07:46:16.851Z,8.50
2023-02-24T07:48:44.689Z,8.50
2023-02-24T07:51:18.301Z,8.50
2023-02-24T07:53:53.069Z,8.60
2023-02-24T07:56:27.093Z,8.60
2023-02-24T07:59:11.175Z,8.60
2023-02-24T08:01:41.023Z,8.70
2023-02-24T08:04:30.512Z,8.70
2023-02-24T08:07:30.546Z,8.70
2023-02-24T08:13:37.560Z,8.80
2023-02-24T08:16:08.059Z,8.80
2023-02-24T08:18:43.203Z,8.90
2023-02-24T08:21:10.634Z,8.90
2023-02-24T08:23:46.957Z,8.90
2023-02-24T08:26:14.952Z,8.90
2023-02-24T08:29:39.692Z,9.00
2023-02-24T08:32:20.740Z,9.10
2023-02-24T08:34:49.864Z,9.20
2023-02-24T08:37:17.357Z,9.20
2023-02-24T08:39:45.166Z,9.30
2023-02-24T08:42:14.333Z,9.30
2023-02-24T08:44:42.488Z,9.40
2023-02-24T08:47:13.867Z,9.40
2023-02-24T08:49:40.874Z,9.40
2023-02-24T08:52:08.664Z,9.50
2023-02-24T08:54:48.037Z,9.50
2023-02-24T08:57:18.291Z,9.50
2023-02-24T08:59:50.320Z,9.50
2023-02-24T09:02:25.535Z,9.50
2023-02-24T09:05:03.799Z,9.60
2023-02-24T09:07:35.821Z,9.70
2023-02-24T09:10:04.259Z,9.80
2023-02-24T09:12:32.527Z,9.80
2023-02-24T09:15:04.916Z,9.80
2023-02-24T09:18:01.971Z,9.90
2023-02-24T09:20:47.382Z,9.80
2023-02-24T09:23:20.309Z,9.80
2023-02-24T09:25:50.817Z,9.70
2023-02-24T09:28:20.255Z,9.70
2023-02-24T09:30:55.967Z,9.80
2023-02-24T09:33:23.068Z,9.80
2023-02-24T09:36:03.303Z,9.90
2023-02-24T09:38:49.452Z,10.00
2023-02-24T09:41:34.317Z,10.00
2023-02-24T09:44:18.382Z,10.20
2023-02-24T09:46:54.427Z,10.20
2023-02-24T09:49:50.789Z,10.30
2023-02-24T09:52:19.231Z,10.30
2023-02-24T09:55:16.759Z,10.30
2023-02-24T09:58:13.971Z,10.30
2023-02-24T10:00:48.195Z,10.40
2023-02-24T10:03:45.838Z,10.40
2023-02-24T10:06:21.202Z,10.40
2023-02-24T10:08:58.270Z,10.50
2023-02-24T10:11:49.722Z,10.50
2023-02-24T10:14:19.559Z,10.40
2023-02-24T10:17:13.776Z,10.50
2023-02-24T10:19:41.561Z,10.60
2023-02-24T10:22:27.581Z,10.70
2023-02-24T10:25:11.304Z,10.80
2023-02-24T10:27:46.947Z,10.90
2023-02-24T10:30:28.151Z,10.90
2023-02-24T10:32:59.034Z,11.00
2023-02-24T10:35:33.724Z,11.10
2023-02-24T10:38:11.693Z,11.20
2023-02-24T10:40:56.868Z,11.30
2023-02-24T10:43:39.818Z,11.50
2023-02-24T10:46:26.379Z,11.60
2023-02-24T10:49:03.041Z,11.70
2023-02-24T10:51:59.075Z,11.90
2023-02-24T10:54:54.222Z,12.10
2023-02-24T10:57:44.685Z,12.20
2023-02-24T11:00:40.906Z,12.10
2023-02-24T11:03:22.192Z,12.10
2023-02-24T11:06:09.495Z,12.10
2023-02-24T11:09:05.439Z,12.00
2023-02-24T11:11:56.465Z,12.00
2023-02-24T11:14:41.845Z,12.10
2023-02-24T11:17:27.125Z,12.30
2023-02-24T11:20:02.506Z,12.40
2023-02-24T11:22:36.100Z,12.50
2023-02-24T11:25:19.856Z,12.70
2023-02-24T11:27:47.383Z,12.80
2023-02-24T11:31:05.073Z,13.20
2023-02-24T11:53:31.913Z,14.00
2023-02-24T11:56:56.825Z,14.00
2023-02-24T11:59:32.389Z,14.20
2023-02-24T12:02:10.482Z,14.20
2023-02-24T12:04:51.501Z,14.40
2023-02-24T12:10:44.510Z,14.20
2023-02-24T12:13:14.405Z,14.20
2023-02-24T12:15:47.535Z,14.10
2023-02-24T12:18:20.348Z,14.00
2023-02-24T12:21:00.469Z,14.00
2023-02-24T12:23:53.863Z,14.00
2023-02-24T12:26:41.125Z,13.90
2023-02-24T12:29:32.973Z,13.90
2023-02-24T12:32:31.508Z,14.10
2023-02-24T12:35:14.563Z,14.20
2023-02-24T12:37:53.977Z,14.20
2023-02-24T12:40:52.520Z,14.20
2023-02-24T12:43:32.962Z,14.20
2023-02-24T12:46:00.567Z,14.10
2023-02-24T12:48:46.690Z,14.20
2023-02-24T12:51:47.577Z,14.40
2023-02-24T12:54:53.560Z,14.70
2023-02-24T12:57:39.492Z,14.80
2023-02-24T13:00:42.067Z,15.10
2023-02-24T13:03:54.922Z,15.40
2023-02-24T13:09:39.221Z,15.90
2023-02-24T13:12:42.388Z,16.00
2023-02-24T14:48:57.636Z,14.90
2023-02-24T14:51:39.202Z,14.80
2023-02-24T14:54:22.474Z,14.70
2023-02-24T14:59:45.565Z,14.60
2023-02-24T15:02:23.289Z,14.60
2023-02-24T15:04:54.538Z,14.60
2023-02-24T15:07:30.387Z,14.60
2023-02-24T15:13:15.772Z,14.70
2023-02-24T15:15:50.846Z,14.70
2023-02-24T15:21:37.930Z,14.70
2023-02-24T15:51:51.420Z,14.30
2023-02-24T16:15:02.302Z,13.90
2023-02-24T18:04:37.752Z,12.40
2023-02-24T18:39:45.835Z,12.20
2023-02-24T19:51:42.224Z,12.00
2023-02-24T19:54:12.824Z,11.90
2023-02-24T19:56:40.720Z,11.90
2023-02-24T19:59:08.410Z,11.90
2023-02-24T20:01:36.036Z,11.90
2023-02-24T20:04:04.660Z,11.90
2023-02-24T20:06:35.840Z,11.90
2023-02-24T20:09:56.710Z,11.90
2023-02-24T20:13:07.255Z,11.90
2023-02-24T20:15:56.354Z,11.80
2023-02-24T20:18:28.711Z,11.80
2023-02-24T20:21:00.122Z,11.80
2023-02-24T20:23:28.245Z,11.80
2023-02-24T20:25:56.831Z,11.80
2023-02-24T20:28:28.378Z,11.80
2023-02-24T20:30:57.413Z,11.80
2023-02-24T20:33:25.118Z,11.80
2023-02-24T20:35:52.569Z,11.80
2023-02-24T20:38:20.361Z,11.80
2023-02-24T20:40:58.925Z,11.80
2023-02-24T20:46:38.212Z,11.80
2023-02-24T20:49:08.060Z,11.90
2023-02-24T20:51:39.978Z,11.80
2023-02-24T20:54:09.935Z,11.90
2023-02-24T20:56:40.764Z,11.80
2023-02-24T20:59:12.800Z,11.80
2023-02-24T21:01:41.546Z,11.80
2023-02-24T21:04:09.563Z,11.70
2023-02-24T21:06:39.293Z,11.70
2023-02-24T21:09:07.376Z,11.60
2023-02-24T21:11:35.230Z,11.60
2023-02-24T21:14:03.144Z,11.60
2023-02-24T21:16:30.577Z,11.60
2023-02-24T21:19:00.471Z,11.60
2023-02-24T21:21:28.563Z,11.50
2023-02-24T21:23:57.419Z,11.50
2023-02-24T21:26:27.262Z,11.50
2023-02-24T21:29:00.279Z,11.50
2023-02-24T21:31:28.695Z,11.50
2023-02-24T21:33:56.576Z,11.40
2023-02-24T21:39:45.034Z,11.30
2023-02-24T21:47:44.067Z,11.30
2023-02-24T22:26:25.704Z,11.30
2023-02-24T23:25:15.360Z,10.90
2023-02-24T23:54:44.161Z,10.60
